DLH446 EDDF-KDEN
Flight info
| Callsign | DLH446 |
|---|---|
| Flight time | N/A |
| Altitude | 36000 |
| Route | OBOKA3W OBOKA Z28 DIBIR DCT BUDIP DCT MIMVA L602 EMLON M79 TENDO DCT ASLIB/N0482F380 DCT TRN DCT AMCON DCT AMLAD DCT SUNOT/M085F390 DCT 58N020W 58N030W 58N040W 57N050W DCT HOIST/N0494F400 DCT JOVIE DCT PELEE DCT MISAX DCT KP21G DCT KP15E DCT KP09C DCT KP90A DCT KD78Y DCT NYTRO AALLE4 |
| Aircraft | A359/H-SADE2E3GHIJ1J2J3J4J5M1P2RWXYZ/LB1D1 |
Departure
| Time | 2026-05-04 21:30 |
|---|---|
| Airport | Frankfurt Main Airport (EDDF) |
Arrival
| Time | N/A |
|---|---|
| Airport | Denver International Airport (KDEN) |
| Time | Latitude | Longitude | Altitude | Speed | Heading |
|---|---|---|---|---|---|
| 2026-05-04 20:56 | 50.04643 | 8.55944 | 362 ft | 0 kts | 340° |
| 2026-05-04 21:18 | 50.04641 | 8.55945 | 362 ft | 2 kts | 340° |
| 2026-05-04 21:18 | 50.04616 | 8.55959 | 365 ft | 4 kts | 342° |
| 2026-05-04 21:18 | 50.04594 | 8.55970 | 367 ft | 3 kts | 340° |
| 2026-05-04 21:19 | 50.04574 | 8.55990 | 369 ft | 4 kts | 295° |
| 2026-05-04 21:19 | 50.04570 | 8.56028 | 364 ft | 4 kts | 258° |
| 2026-05-04 21:19 | 50.04578 | 8.56068 | 365 ft | 4 kts | 249° |
| 2026-05-04 21:19 | 50.04582 | 8.56085 | 366 ft | 5 kts | 250° |
| 2026-05-04 21:21 | 50.04574 | 8.56049 | 368 ft | 9 kts | 252° |
| 2026-05-04 21:22 | 50.04505 | 8.55951 | 369 ft | 17 kts | 207° |
| 2026-05-04 21:22 | 50.04396 | 8.55916 | 365 ft | 16 kts | 174° |
| 2026-05-04 21:22 | 50.04289 | 8.55977 | 369 ft | 17 kts | 137° |
| 2026-05-04 21:22 | 50.04289 | 8.56143 | 369 ft | 16 kts | 72° |
| 2026-05-04 21:23 | 50.04328 | 8.56308 | 367 ft | 16 kts | 70° |
| 2026-05-04 21:23 | 50.04368 | 8.56476 | 368 ft | 17 kts | 70° |
| 2026-05-04 21:23 | 50.04409 | 8.56646 | 372 ft | 17 kts | 70° |
| 2026-05-04 21:23 | 50.04449 | 8.56817 | 371 ft | 17 kts | 70° |
| 2026-05-04 21:24 | 50.04491 | 8.56994 | 364 ft | 19 kts | 70° |
| 2026-05-04 21:24 | 50.04538 | 8.57189 | 371 ft | 20 kts | 70° |
| 2026-05-04 21:24 | 50.04587 | 8.57393 | 371 ft | 20 kts | 70° |
| 2026-05-04 21:24 | 50.04636 | 8.57602 | 368 ft | 21 kts | 70° |
| 2026-05-04 21:25 | 50.04687 | 8.57816 | 372 ft | 21 kts | 70° |
| 2026-05-04 21:25 | 50.04650 | 8.57989 | 372 ft | 18 kts | 153° |
| 2026-05-04 21:25 | 50.04574 | 8.58107 | 374 ft | 14 kts | 92° |
| 2026-05-04 21:25 | 50.04596 | 8.58242 | 378 ft | 11 kts | 70° |
| 2026-05-04 21:26 | 50.04623 | 8.58353 | 376 ft | 11 kts | 70° |
| 2026-05-04 21:26 | 50.04633 | 8.58396 | 377 ft | 0 kts | 70° |
| 2026-05-04 21:26 | 50.04637 | 8.58413 | 377 ft | 5 kts | 70° |
| 2026-05-04 21:26 | 50.04649 | 8.58499 | 375 ft | 11 kts | 94° |
| 2026-05-04 21:27 | 50.04601 | 8.58579 | 375 ft | 0 kts | 155° |
| 2026-05-04 21:27 | 50.04599 | 8.58581 | 375 ft | 2 kts | 155° |
| 2026-05-04 21:27 | 50.04562 | 8.58606 | 376 ft | 8 kts | 157° |
| 2026-05-04 21:28 | 50.04515 | 8.58610 | 377 ft | 7 kts | 194° |
| 2026-05-04 21:28 | 50.04481 | 8.58555 | 376 ft | 8 kts | 243° |
| 2026-05-04 21:28 | 50.04458 | 8.58469 | 376 ft | 9 kts | 248° |
| 2026-05-04 21:28 | 50.04430 | 8.58356 | 375 ft | 19 kts | 250° |
| 2026-05-04 21:29 | 50.04310 | 8.57847 | 373 ft | 81 kts | 249° |
| 2026-05-04 21:29 | 50.04049 | 8.56759 | 369 ft | 132 kts | 250° |
| 2026-05-04 21:29 | 50.03670 | 8.55186 | 376 ft | 175 kts | 250° |
| 2026-05-04 21:29 | 50.03245 | 8.53397 | 938 ft | 174 kts | 250° |
| 2026-05-04 21:30 | 50.02834 | 8.51641 | 1585 ft | 174 kts | 251° |
| 2026-05-04 21:30 | 50.02327 | 8.49859 | 1885 ft | 190 kts | 238° |
| 2026-05-04 21:30 | 50.01307 | 8.48471 | 2223 ft | 202 kts | 208° |
| 2026-05-04 21:30 | 49.99952 | 8.47826 | 2757 ft | 205 kts | 189° |
| 2026-05-04 21:31 | 49.97120 | 8.47264 | 3817 ft | 208 kts | 187° |
| 2026-05-04 21:31 | 49.95700 | 8.46855 | 4352 ft | 209 kts | 194° |
| 2026-05-04 21:31 | 49.94253 | 8.46239 | 4669 ft | 222 kts | 196° |
| 2026-05-04 21:32 | 49.92725 | 8.45519 | 5027 ft | 235 kts | 199° |
| 2026-05-04 21:32 | 49.91312 | 8.44235 | 5560 ft | 239 kts | 225° |
| 2026-05-04 21:32 | 49.90323 | 8.42171 | 6260 ft | 239 kts | 237° |
| 2026-05-04 21:32 | 49.89472 | 8.39956 | 6925 ft | 240 kts | 238° |
| 2026-05-04 21:33 | 49.88757 | 8.37597 | 7544 ft | 244 kts | 251° |
| 2026-05-04 21:33 | 49.88564 | 8.34935 | 8050 ft | 258 kts | 269° |
| 2026-05-04 21:33 | 49.88691 | 8.32068 | 8491 ft | 271 kts | 272° |
| 2026-05-04 21:33 | 49.88879 | 8.29126 | 9142 ft | 276 kts | 273° |
| 2026-05-04 21:34 | 49.89357 | 8.26216 | 9856 ft | 283 kts | 292° |
| 2026-05-04 21:34 | 49.90403 | 8.23568 | 10368 ft | 296 kts | 302° |
| 2026-05-04 21:34 | 49.91669 | 8.20920 | 10667 ft | 314 kts | 304° |
| 2026-05-04 21:34 | 49.93006 | 8.18175 | 10981 ft | 331 kts | 304° |
| 2026-05-04 21:35 | 49.94549 | 8.15392 | 11262 ft | 350 kts | 313° |
| 2026-05-04 21:35 | 49.96403 | 8.12823 | 11658 ft | 363 kts | 317° |
| 2026-05-04 21:35 | 49.98348 | 8.10263 | 12213 ft | 369 kts | 317° |
| 2026-05-04 21:35 | 50.00317 | 8.07665 | 12812 ft | 374 kts | 317° |
| 2026-05-04 21:36 | 50.02309 | 8.05021 | 13405 ft | 379 kts | 317° |
| 2026-05-04 21:36 | 50.04323 | 8.02334 | 13987 ft | 383 kts | 316° |
| 2026-05-04 21:36 | 50.06348 | 7.99626 | 14562 ft | 386 kts | 316° |
| 2026-05-04 21:36 | 50.08387 | 7.96893 | 15171 ft | 387 kts | 316° |
| 2026-05-04 21:37 | 50.10430 | 7.94149 | 15746 ft | 390 kts | 316° |
| 2026-05-04 21:37 | 50.12491 | 7.91376 | 16317 ft | 392 kts | 316° |
| 2026-05-04 21:37 | 50.14564 | 7.88584 | 16907 ft | 395 kts | 316° |
| 2026-05-04 21:37 | 50.16648 | 7.85773 | 17514 ft | 397 kts | 316° |
| 2026-05-04 21:38 | 50.18715 | 7.82983 | 18097 ft | 399 kts | 316° |
| 2026-05-04 21:38 | 50.20825 | 7.80128 | 18583 ft | 404 kts | 316° |
| 2026-05-04 21:38 | 50.22970 | 7.77223 | 19006 ft | 409 kts | 316° |
| 2026-05-04 21:38 | 50.25187 | 7.74409 | 19508 ft | 414 kts | 322° |
| 2026-05-04 21:39 | 50.27729 | 7.72232 | 20047 ft | 419 kts | 333° |
| 2026-05-04 21:39 | 50.30412 | 7.70370 | 20579 ft | 423 kts | 334° |
| 2026-05-04 21:39 | 50.33121 | 7.68540 | 21095 ft | 426 kts | 334° |
| 2026-05-04 21:39 | 50.35852 | 7.66688 | 21607 ft | 429 kts | 334° |
| 2026-05-04 21:40 | 50.38605 | 7.64816 | 22115 ft | 432 kts | 334° |
| 2026-05-04 21:40 | 50.41379 | 7.62917 | 22649 ft | 435 kts | 333° |
| 2026-05-04 21:40 | 50.44155 | 7.61009 | 23184 ft | 437 kts | 333° |
| 2026-05-04 21:40 | 50.46951 | 7.59083 | 23666 ft | 440 kts | 333° |
| 2026-05-04 21:41 | 50.49766 | 7.57142 | 24063 ft | 443 kts | 333° |
| 2026-05-04 21:41 | 50.52566 | 7.55209 | 24458 ft | 447 kts | 333° |
| 2026-05-04 21:41 | 50.55400 | 7.53154 | 24848 ft | 449 kts | 329° |
| 2026-05-04 21:41 | 50.58084 | 7.50661 | 25260 ft | 449 kts | 324° |
| 2026-05-04 21:42 | 50.60717 | 7.47988 | 25669 ft | 451 kts | 323° |
| 2026-05-04 21:42 | 50.63360 | 7.45271 | 26037 ft | 456 kts | 322° |
| 2026-05-04 21:42 | 50.66036 | 7.42518 | 26379 ft | 460 kts | 322° |
| 2026-05-04 21:42 | 50.68725 | 7.39752 | 26821 ft | 462 kts | 322° |
| 2026-05-04 21:43 | 50.71420 | 7.36960 | 27203 ft | 464 kts | 321° |
| 2026-05-04 21:43 | 50.73951 | 7.33830 | 27568 ft | 461 kts | 312° |
| 2026-05-04 21:43 | 50.76110 | 7.30118 | 27958 ft | 457 kts | 303° |
| 2026-05-04 21:43 | 50.78043 | 7.26116 | 28350 ft | 458 kts | 301° |
| 2026-05-04 21:44 | 50.79903 | 7.22014 | 28722 ft | 459 kts | 300° |
| 2026-05-04 21:44 | 50.81732 | 7.17857 | 29110 ft | 461 kts | 299° |
| 2026-05-04 21:44 | 50.83556 | 7.13673 | 29480 ft | 464 kts | 299° |
| 2026-05-04 21:44 | 50.85374 | 7.09509 | 29826 ft | 466 kts | 299° |
| 2026-05-04 21:45 | 50.87230 | 7.05277 | 30173 ft | 469 kts | 299° |
| 2026-05-04 21:45 | 50.89102 | 7.01025 | 30405 ft | 472 kts | 299° |
| 2026-05-04 21:45 | 50.90988 | 6.96758 | 30697 ft | 474 kts | 300° |
| 2026-05-04 21:45 | 50.92884 | 6.92478 | 31019 ft | 475 kts | 300° |
| 2026-05-04 21:46 | 50.94779 | 6.88190 | 31314 ft | 476 kts | 300° |
| 2026-05-04 21:46 | 50.96684 | 6.83873 | 31575 ft | 477 kts | 300° |
| 2026-05-04 21:46 | 50.98588 | 6.79547 | 31851 ft | 479 kts | 300° |
| 2026-05-04 21:46 | 51.00500 | 6.75196 | 32105 ft | 480 kts | 299° |
| 2026-05-04 21:47 | 51.02406 | 6.70852 | 32358 ft | 481 kts | 299° |
| 2026-05-04 21:47 | 51.04322 | 6.66477 | 32670 ft | 481 kts | 299° |
| 2026-05-04 21:47 | 51.06232 | 6.62109 | 33082 ft | 479 kts | 300° |
| 2026-05-04 21:47 | 51.08110 | 6.57811 | 33371 ft | 479 kts | 300° |
| 2026-05-04 21:48 | 51.10007 | 6.53460 | 33633 ft | 479 kts | 300° |
| 2026-05-04 21:48 | 51.11901 | 6.49107 | 33945 ft | 478 kts | 299° |
| 2026-05-04 21:48 | 51.13789 | 6.44757 | 34199 ft | 478 kts | 299° |
| 2026-05-04 21:48 | 51.15679 | 6.40391 | 34436 ft | 477 kts | 300° |
| 2026-05-04 21:49 | 51.17565 | 6.36029 | 34643 ft | 477 kts | 300° |
| 2026-05-04 21:49 | 51.19449 | 6.31663 | 34867 ft | 477 kts | 300° |
| 2026-05-04 21:49 | 51.21326 | 6.27308 | 35079 ft | 477 kts | 300° |
| 2026-05-04 21:49 | 51.23203 | 6.22946 | 35291 ft | 477 kts | 300° |
| 2026-05-04 21:50 | 51.25080 | 6.18579 | 35515 ft | 477 kts | 300° |
| 2026-05-04 21:50 | 51.26952 | 6.14213 | 35686 ft | 477 kts | 300° |
| 2026-05-04 21:50 | 51.28801 | 6.09890 | 35870 ft | 477 kts | 300° |
| 2026-05-04 21:51 | 51.32465 | 6.00999 | 35965 ft | 482 kts | 299° |
| 2026-05-04 21:51 | 51.36122 | 5.91968 | 35959 ft | 483 kts | 300° |
| 2026-05-04 21:52 | 51.40549 | 5.83776 | 35960 ft | 489 kts | 312° |
| 2026-05-04 21:52 | 51.45586 | 5.76386 | 35964 ft | 491 kts | 315° |
| 2026-05-04 21:53 | 51.50711 | 5.69202 | 35966 ft | 492 kts | 315° |
| 2026-05-04 21:53 | 51.55864 | 5.61937 | 35963 ft | 492 kts | 315° |
| 2026-05-04 21:54 | 51.60986 | 5.54629 | 35963 ft | 492 kts | 315° |
| 2026-05-04 21:54 | 51.66096 | 5.47290 | 35962 ft | 492 kts | 315° |
| 2026-05-04 21:55 | 51.71163 | 5.39984 | 35963 ft | 491 kts | 315° |
| 2026-05-04 21:55 | 51.76250 | 5.32631 | 35971 ft | 490 kts | 315° |
| 2026-05-04 21:56 | 51.80464 | 5.26522 | 35965 ft | 489 kts | 315° |
| 2026-05-04 21:56 | 51.85521 | 5.19170 | 35965 ft | 488 kts | 315° |
| 2026-05-04 21:57 | 51.90579 | 5.11794 | 35965 ft | 488 kts | 315° |
| 2026-05-04 21:57 | 51.95631 | 5.04403 | 35966 ft | 488 kts | 315° |
| 2026-05-04 21:58 | 52.00630 | 4.97069 | 35973 ft | 487 kts | 315° |
| 2026-05-04 21:58 | 52.05650 | 4.89678 | 35999 ft | 487 kts | 315° |
| 2026-05-04 21:59 | 52.10664 | 4.82272 | 36004 ft | 487 kts | 315° |
| 2026-05-04 21:59 | 52.15649 | 4.74888 | 36005 ft | 486 kts | 315° |
| 2026-05-04 22:00 | 52.20650 | 4.67455 | 35989 ft | 486 kts | 315° |
| 2026-05-04 22:00 | 52.25636 | 4.60022 | 35987 ft | 485 kts | 315° |
| 2026-05-04 22:01 | 52.30616 | 4.52574 | 35997 ft | 485 kts | 315° |
| 2026-05-04 22:01 | 52.35592 | 4.45107 | 35998 ft | 485 kts | 315° |
| 2026-05-04 22:02 | 52.40555 | 4.37637 | 36003 ft | 485 kts | 315° |
| 2026-05-04 22:02 | 52.45519 | 4.30140 | 36012 ft | 485 kts | 315° |
| 2026-05-04 22:03 | 52.50439 | 4.22688 | 36011 ft | 483 kts | 315° |
| 2026-05-04 22:03 | 52.55382 | 4.15176 | 36016 ft | 483 kts | 314° |
| 2026-05-04 22:04 | 52.60304 | 4.07672 | 36017 ft | 482 kts | 314° |
| 2026-05-04 22:04 | 52.65220 | 4.00151 | 36037 ft | 482 kts | 314° |
| 2026-05-04 22:05 | 52.70125 | 3.92626 | 36041 ft | 481 kts | 314° |
| 2026-05-04 22:05 | 52.75016 | 3.85097 | 36036 ft | 480 kts | 314° |
| 2026-05-04 22:06 | 52.79894 | 3.77563 | 36033 ft | 480 kts | 314° |
| 2026-05-04 22:06 | 52.84743 | 3.70049 | 36035 ft | 480 kts | 314° |
| 2026-05-04 22:07 | 52.89609 | 3.62486 | 36045 ft | 480 kts | 314° |
| 2026-05-04 22:07 | 52.94469 | 3.54908 | 36050 ft | 480 kts | 314° |
| 2026-05-04 22:08 | 52.99321 | 3.47314 | 36053 ft | 480 kts | 315° |
| 2026-05-04 22:08 | 53.04142 | 3.39748 | 36047 ft | 479 kts | 314° |
| 2026-05-04 22:09 | 53.08505 | 3.31438 | 36048 ft | 475 kts | 301° |
| 2026-05-04 22:09 | 53.11220 | 3.21492 | 36038 ft | 471 kts | 284° |
| 2026-05-04 22:10 | 53.12783 | 3.10896 | 36036 ft | 471 kts | 281° |
| 2026-05-04 22:10 | 53.14152 | 3.00208 | 36045 ft | 472 kts | 281° |
| 2026-05-04 22:11 | 53.15506 | 2.89541 | 36045 ft | 474 kts | 281° |
| 2026-05-04 22:11 | 53.16888 | 2.78793 | 36045 ft | 474 kts | 281° |
| 2026-05-04 22:12 | 53.18275 | 2.68031 | 36045 ft | 474 kts | 281° |
| 2026-05-04 22:12 | 53.19647 | 2.57349 | 36044 ft | 474 kts | 281° |
| 2026-05-04 22:13 | 53.21886 | 2.47013 | 36045 ft | 476 kts | 297° |
| 2026-05-04 22:13 | 53.25272 | 2.37488 | 36045 ft | 478 kts | 301° |
| 2026-05-04 22:14 | 53.28849 | 2.28106 | 36043 ft | 479 kts | 302° |
| 2026-05-04 22:14 | 53.32443 | 2.18714 | 36048 ft | 479 kts | 301° |
| 2026-05-04 22:15 | 53.35986 | 2.09351 | 36052 ft | 479 kts | 301° |
| 2026-05-04 22:15 | 53.39536 | 1.99893 | 36053 ft | 480 kts | 301° |
| 2026-05-04 22:16 | 53.43079 | 1.90408 | 36054 ft | 480 kts | 301° |
| 2026-05-04 22:16 | 53.46619 | 1.80897 | 36056 ft | 481 kts | 301° |
| 2026-05-04 22:17 | 53.50155 | 1.71363 | 36056 ft | 481 kts | 301° |
| 2026-05-04 22:17 | 53.53681 | 1.61821 | 36056 ft | 481 kts | 301° |
| 2026-05-04 22:18 | 53.57183 | 1.52304 | 36055 ft | 481 kts | 301° |
| 2026-05-04 22:18 | 53.60706 | 1.42695 | 36056 ft | 481 kts | 301° |
| 2026-05-04 22:19 | 53.64221 | 1.33074 | 36056 ft | 482 kts | 301° |
| 2026-05-04 22:19 | 53.67724 | 1.23448 | 36053 ft | 481 kts | 301° |
| 2026-05-04 22:20 | 53.71219 | 1.13803 | 36053 ft | 481 kts | 301° |
| 2026-05-04 22:20 | 53.74683 | 1.04208 | 36052 ft | 481 kts | 301° |
| 2026-05-04 22:21 | 53.78156 | 0.94549 | 36052 ft | 479 kts | 301° |
| 2026-05-04 22:21 | 53.81615 | 0.84895 | 36053 ft | 479 kts | 301° |
| 2026-05-04 22:22 | 53.85054 | 0.75259 | 36050 ft | 478 kts | 301° |
| 2026-05-04 22:22 | 53.88482 | 0.65616 | 36051 ft | 477 kts | 301° |
| 2026-05-04 22:23 | 53.91904 | 0.55954 | 36050 ft | 479 kts | 301° |
| 2026-05-04 22:23 | 53.95321 | 0.46263 | 36044 ft | 479 kts | 301° |
| 2026-05-04 22:24 | 53.98720 | 0.36590 | 36045 ft | 479 kts | 301° |
| 2026-05-04 22:24 | 54.02112 | 0.26856 | 36043 ft | 477 kts | 299° |
| 2026-05-04 22:25 | 54.04964 | 0.16673 | 36040 ft | 477 kts | 294° |
| 2026-05-04 22:25 | 54.07648 | 0.06335 | 36040 ft | 477 kts | 294° |
| 2026-05-04 22:26 | 54.10290 | -0.04023 | 36040 ft | 477 kts | 294° |
| 2026-05-04 22:26 | 54.12916 | -0.14353 | 36043 ft | 479 kts | 294° |
| 2026-05-04 22:27 | 54.15560 | -0.24774 | 36040 ft | 479 kts | 294° |
| 2026-05-04 22:27 | 54.18201 | -0.35219 | 36039 ft | 479 kts | 293° |
| 2026-05-04 22:28 | 54.20832 | -0.45671 | 36039 ft | 479 kts | 293° |
| 2026-05-04 22:28 | 54.23458 | -0.56156 | 36039 ft | 479 kts | 293° |
| 2026-05-04 22:29 | 54.26052 | -0.66559 | 36039 ft | 477 kts | 293° |
| 2026-05-04 22:29 | 54.28640 | -0.76992 | 36039 ft | 475 kts | 293° |
| 2026-05-04 22:30 | 54.31216 | -0.87425 | 36039 ft | 475 kts | 292° |
| 2026-05-04 22:30 | 54.33782 | -0.97867 | 36041 ft | 475 kts | 292° |
| 2026-05-04 22:31 | 54.36336 | -1.08311 | 36041 ft | 475 kts | 292° |
| 2026-05-04 22:31 | 54.38864 | -1.18694 | 36045 ft | 475 kts | 292° |
| 2026-05-04 22:32 | 54.41400 | -1.29163 | 36046 ft | 474 kts | 292° |
| 2026-05-04 22:32 | 54.43928 | -1.39647 | 36048 ft | 474 kts | 292° |
| 2026-05-04 22:33 | 54.46446 | -1.50145 | 36048 ft | 474 kts | 292° |
| 2026-05-04 22:33 | 54.48953 | -1.60644 | 36049 ft | 474 kts | 292° |
| 2026-05-04 22:34 | 54.51443 | -1.71118 | 36048 ft | 471 kts | 292° |
| 2026-05-04 22:34 | 54.53911 | -1.81557 | 36049 ft | 470 kts | 292° |
| 2026-05-04 22:35 | 54.56353 | -1.91937 | 36047 ft | 470 kts | 292° |
| 2026-05-04 22:35 | 54.58803 | -2.02400 | 36058 ft | 470 kts | 292° |
| 2026-05-04 22:36 | 54.61245 | -2.12877 | 36055 ft | 470 kts | 291° |
| 2026-05-04 22:36 | 54.63675 | -2.23357 | 36061 ft | 470 kts | 291° |
| 2026-05-04 22:37 | 54.66098 | -2.33857 | 36061 ft | 470 kts | 291° |
| 2026-05-04 22:37 | 54.68506 | -2.44344 | 36064 ft | 470 kts | 291° |
| 2026-05-04 22:38 | 54.70895 | -2.54799 | 36063 ft | 470 kts | 291° |
| 2026-05-04 22:38 | 54.73285 | -2.65312 | 36068 ft | 469 kts | 291° |
| 2026-05-04 22:39 | 54.75653 | -2.75779 | 36062 ft | 465 kts | 291° |
| 2026-05-04 22:39 | 54.78005 | -2.86228 | 36061 ft | 465 kts | 291° |
| 2026-05-04 22:40 | 54.80345 | -2.96676 | 36061 ft | 465 kts | 291° |
| 2026-05-04 22:40 | 54.82777 | -3.06976 | 36307 ft | 464 kts | 296° |
| 2026-05-04 22:40 | 54.84193 | -3.12002 | 36545 ft | 463 kts | 296° |
| 2026-05-04 22:41 | 54.85631 | -3.16992 | 36727 ft | 462 kts | 296° |
| 2026-05-04 22:41 | 54.87085 | -3.21979 | 36908 ft | 462 kts | 296° |
| 2026-05-04 22:41 | 54.88543 | -3.26957 | 37070 ft | 462 kts | 296° |
| 2026-05-04 22:41 | 54.89998 | -3.31923 | 37284 ft | 461 kts | 296° |
| 2026-05-04 22:42 | 54.91452 | -3.36899 | 37455 ft | 461 kts | 296° |
| 2026-05-04 22:42 | 54.92902 | -3.41881 | 37623 ft | 461 kts | 296° |
| 2026-05-04 22:42 | 54.94344 | -3.46851 | 37747 ft | 461 kts | 296° |
| 2026-05-04 22:43 | 54.96737 | -3.55130 | 38038 ft | 460 kts | 296° |
| 2026-05-04 22:43 | 54.99606 | -3.65100 | 38063 ft | 460 kts | 296° |
| 2026-05-04 22:44 | 55.02462 | -3.75069 | 38066 ft | 460 kts | 296° |
| 2026-05-04 22:44 | 55.05298 | -3.85007 | 38063 ft | 460 kts | 296° |
| 2026-05-04 22:45 | 55.08156 | -3.95067 | 38072 ft | 459 kts | 296° |
| 2026-05-04 22:45 | 55.12383 | -4.10029 | 38068 ft | 459 kts | 296° |
| 2026-05-04 22:46 | 55.15200 | -4.20052 | 38071 ft | 459 kts | 296° |
| 2026-05-04 22:46 | 55.18008 | -4.30086 | 38073 ft | 459 kts | 295° |
| 2026-05-04 22:47 | 55.20810 | -4.40140 | 38071 ft | 458 kts | 295° |
| 2026-05-04 22:47 | 55.23590 | -4.50162 | 38074 ft | 457 kts | 295° |
| 2026-05-04 22:48 | 55.26342 | -4.60125 | 38075 ft | 457 kts | 295° |
| 2026-05-04 22:48 | 55.29105 | -4.70172 | 38070 ft | 457 kts | 295° |
| 2026-05-04 22:49 | 55.31563 | -4.80436 | 38072 ft | 456 kts | 286° |
| 2026-05-04 22:49 | 55.33287 | -4.91170 | 38070 ft | 456 kts | 285° |
| 2026-05-04 22:50 | 55.34879 | -5.01972 | 38067 ft | 457 kts | 284° |
| 2026-05-04 22:50 | 55.36446 | -5.12796 | 38073 ft | 457 kts | 284° |
| 2026-05-04 22:51 | 55.38014 | -5.23623 | 38071 ft | 457 kts | 284° |
| 2026-05-04 22:51 | 55.39583 | -5.34470 | 38077 ft | 457 kts | 284° |